Hlavní strana
METAR-TAF:

METAR-TAF

Letiště :

Frontone, Itálie

zeměpisná šířka: 43-31N, zeměpisná délka: 012-44E, výška: 570 m

Aktuální stav počasí

Zpráva byla vytvořena před 34 minutami, v 15:55 UTC
Východní vítr 6 kt
Teplota 8°C
Vlhkost vzduchu 49%
Tlak 1021 hPa
Viditelnost 10 km a více
Polojasno ve výšce 4000 ft

METAR: LIVF 161555Z 08006KT 9999 SCT040 08/M02 Q1021 RMK SCT MON LIB VAL NIL VIS MIN 9999

Čas: 17:29 (16:29 UTC)


TAF: chybějící

Stav a předpovědi počasí z více než 4 000 letišť (zprávy METAR a TAF).

Červené a žluté tečky na mapě představují dostupné meteorologické stanice.

Když kurzor umístíte na tečku, zobrazí se název stanice.

Pak kliknutím zobrazíte stav a předpověď počasí.

Chcete-li změnit mapu, kliknutím na zelené tlačítko se znaménkem +mapu přiblížíte, kliknutím na zelené tlačítko se znaménkem – mapu oddálíte a kliknutím na zelené šipky přejdete na sousední mapy.


METAR-TAF: